createdAt,value
2018-12-03T00:02:14.159Z,94.64
2018-12-03T00:07:12.961Z,94.45
2018-12-03T00:12:10.652Z,94.70
2018-12-03T00:17:05.474Z,94.20
2018-12-03T00:22:00.339Z,94.03
2018-12-03T00:26:55.399Z,94.37
2018-12-03T00:31:50.219Z,94.18
2018-12-03T00:36:45.901Z,94.13
2018-12-03T00:41:40.836Z,94.75
2018-12-03T00:46:35.627Z,94.32
2018-12-03T00:51:30.360Z,93.72
2018-12-03T00:56:25.085Z,93.96
2018-12-03T01:01:19.864Z,93.55
2018-12-03T01:06:14.529Z,93.13
2018-12-03T01:11:09.523Z,92.28
2018-12-03T01:16:04.191Z,92.19
2018-12-03T01:20:58.919Z,91.53
2018-12-03T01:25:53.553Z,91.85
2018-12-03T01:30:48.168Z,91.56
2018-12-03T01:35:42.882Z,90.66
2018-12-03T01:40:37.514Z,90.16
2018-12-03T01:45:32.023Z,90.18
2018-12-03T01:50:26.542Z,88.96
2018-12-03T01:55:21.167Z,89.75
2018-12-03T02:00:18.789Z,89.15
2018-12-03T02:05:14.001Z,89.67
2018-12-03T02:10:14.586Z,90.13
2018-12-03T02:15:12.398Z,90.61
2018-12-03T02:20:11.962Z,91.43
2018-12-03T02:25:08.276Z,91.32
2018-12-03T02:30:03.048Z,91.33
2018-12-03T02:34:57.579Z,91.29
2018-12-03T02:39:52.227Z,91.61
2018-12-03T02:44:47.040Z,91.95
2018-12-03T02:49:41.738Z,91.50
2018-12-03T02:54:36.203Z,91.52
2018-12-03T02:59:30.863Z,91.86
2018-12-03T03:04:25.606Z,92.02
2018-12-03T03:09:20.115Z,92.52
2018-12-03T03:14:14.859Z,93.24
2018-12-03T03:19:09.575Z,93.25
2018-12-03T03:24:04.288Z,93.25
2018-12-03T03:28:58.826Z,92.89
2018-12-03T03:33:53.632Z,92.94
2018-12-03T03:38:48.370Z,92.77
2018-12-03T03:43:43.151Z,92.37
2018-12-03T03:48:37.674Z,92.25
2018-12-03T03:53:32.358Z,91.99
2018-12-03T03:58:27.292Z,92.45
2018-12-03T04:03:22.147Z,92.73
2018-12-03T04:08:16.787Z,93.25
2018-12-03T04:13:12.364Z,92.74
2018-12-03T04:18:07.844Z,92.44
2018-12-03T04:23:02.539Z,91.62
2018-12-03T04:27:57.334Z,91.78
2018-12-03T04:32:53.343Z,91.40
2018-12-03T04:37:47.980Z,91.36
2018-12-03T04:42:42.509Z,91.66
2018-12-03T04:47:37.577Z,91.43
2018-12-03T04:52:32.447Z,91.84
2018-12-03T04:57:27.112Z,91.48
2018-12-03T05:02:21.651Z,91.50
2018-12-03T05:07:16.908Z,92.21
2018-12-03T05:12:11.573Z,92.27
2018-12-03T05:17:06.276Z,92.25
2018-12-03T05:22:00.946Z,92.06
2018-12-03T05:26:55.549Z,91.36
2018-12-03T05:31:50.155Z,90.48
2018-12-03T05:36:45.051Z,91.16
2018-12-03T05:41:39.710Z,91.17
2018-12-03T05:46:34.905Z,90.71
2018-12-03T05:51:29.838Z,92.06
2018-12-03T05:56:24.679Z,92.84
2018-12-03T06:01:19.375Z,93.15
2018-12-03T06:06:14.329Z,92.80
2018-12-03T06:11:09.807Z,92.67
2018-12-03T06:16:04.731Z,92.09
2018-12-03T06:20:59.349Z,91.94
2018-12-03T06:25:54.131Z,92.07
2018-12-03T06:30:48.799Z,92.26
2018-12-03T06:35:44.456Z,92.09
2018-12-03T06:40:39.204Z,91.85
2018-12-03T06:45:33.983Z,92.45
2018-12-03T06:50:28.806Z,92.13
2018-12-03T06:55:24.269Z,92.84
2018-12-03T07:00:22.313Z,93.08
2018-12-03T07:05:17.607Z,91.98
2018-12-03T07:10:16.892Z,92.71
2018-12-03T07:15:26.472Z,94.22
2018-12-03T07:20:23.312Z,93.42
2018-12-03T07:41:33.733Z,92.38
2018-12-03T07:46:28.523Z,92.13
2018-12-03T07:51:25.401Z,90.62
2018-12-03T07:56:28.648Z,90.06
2018-12-03T08:01:24.998Z,89.16
2018-12-03T08:17:10.580Z,88.63
2018-12-03T08:22:05.762Z,87.81
2018-12-03T08:27:01.004Z,87.69
2018-12-03T08:31:55.769Z,87.70
2018-12-03T08:53:05.712Z,86.43
2018-12-03T08:58:00.964Z,86.08
2018-12-03T09:03:09.961Z,84.19
2018-12-03T09:08:04.651Z,85.16
2018-12-03T09:13:07.520Z,85.50
2018-12-03T09:18:03.740Z,84.13
2018-12-03T09:23:00.952Z,83.48
2018-12-03T09:27:55.522Z,83.17
2018-12-03T09:32:51.239Z,82.91
2018-12-03T09:54:04.903Z,81.55
2018-12-03T09:59:00.941Z,81.61
2018-12-03T10:03:55.685Z,81.86
2018-12-03T10:08:50.788Z,81.80
2018-12-03T10:13:45.362Z,82.31
2018-12-03T10:18:40.192Z,82.37
2018-12-03T10:23:35.374Z,80.95
2018-12-03T10:28:30.837Z,80.61
2018-12-03T10:49:41.343Z,79.43
2018-12-03T10:54:39.486Z,79.52
2018-12-03T10:59:34.393Z,79.51
2018-12-03T11:04:40.551Z,79.22
2018-12-03T11:09:36.460Z,78.21
2018-12-03T11:14:32.185Z,77.34
2018-12-03T11:19:27.263Z,78.09
2018-12-03T11:24:22.672Z,77.30
2018-12-03T11:29:18.989Z,77.04
2018-12-03T11:50:27.637Z,74.81
2018-12-03T11:55:24.078Z,75.05
2018-12-03T12:00:19.117Z,74.92
2018-12-03T12:05:14.597Z,74.49
2018-12-03T12:10:10.689Z,74.54
2018-12-03T12:31:19.613Z,73.12
2018-12-03T12:36:14.703Z,74.10
2018-12-03T12:41:09.666Z,74.78
2018-12-03T12:46:10.700Z,76.53
2018-12-03T12:51:06.019Z,77.24
2018-12-03T13:01:45.144Z,76.71
2018-12-03T13:06:41.688Z,75.57
2018-12-03T13:11:36.697Z,75.97
2018-12-03T13:16:31.775Z,76.54
2018-12-03T13:21:38.991Z,78.41
2018-12-03T13:42:49.994Z,79.98
2018-12-03T13:47:45.183Z,80.25
2018-12-03T13:52:41.289Z,81.13
2018-12-03T13:57:36.275Z,82.65
2018-12-03T14:02:31.242Z,83.43
2018-12-03T14:23:41.355Z,81.72
2018-12-03T14:28:36.552Z,81.94
2018-12-03T14:33:31.588Z,81.80
2018-12-03T14:38:26.795Z,80.71
2018-12-03T14:43:21.668Z,80.14
2018-12-03T14:59:06.067Z,79.68
2018-12-03T15:04:05.330Z,80.12
2018-12-03T15:08:59.990Z,80.34
2018-12-03T15:13:54.839Z,80.35
2018-12-03T15:35:06.255Z,81.00
2018-12-03T15:40:01.292Z,81.08
2018-12-03T15:44:56.160Z,80.75
2018-12-03T15:49:51.532Z,80.16
2018-12-03T15:54:46.957Z,80.80
2018-12-03T16:15:56.628Z,79.48
2018-12-03T16:20:51.784Z,79.50
2018-12-03T16:25:48.263Z,79.30
2018-12-03T16:30:43.784Z,78.56
2018-12-03T16:35:38.960Z,78.30
2018-12-03T16:51:23.246Z,77.74
2018-12-03T16:56:18.179Z,77.69
2018-12-03T17:01:13.240Z,77.22
2018-12-03T17:06:08.498Z,78.20
2018-12-03T17:27:17.288Z,79.01
2018-12-03T17:32:12.487Z,79.26
2018-12-03T17:37:07.219Z,79.69
2018-12-03T17:42:02.858Z,78.68
2018-12-03T17:46:57.916Z,78.84
2018-12-03T17:52:01.672Z,78.10
2018-12-03T17:56:59.632Z,76.53
2018-12-03T18:01:54.215Z,76.64
2018-12-03T18:06:49.148Z,78.29
2018-12-03T18:27:59.561Z,84.32
2018-12-03T18:32:55.100Z,84.17
2018-12-03T18:37:49.776Z,84.94
2018-12-03T18:42:44.438Z,85.83
2018-12-03T18:47:39.037Z,87.43
2018-12-03T19:08:48.203Z,88.42
2018-12-03T19:13:42.860Z,88.58
2018-12-03T19:18:37.510Z,88.20
2018-12-03T19:23:32.281Z,87.72
2018-12-03T19:28:26.912Z,85.33
2018-12-03T19:44:10.658Z,84.54
2018-12-03T19:49:05.302Z,84.42
2018-12-03T19:54:00.679Z,85.37
2018-12-03T19:58:56.800Z,84.03
2018-12-03T20:20:10.532Z,82.01
2018-12-03T20:25:06.205Z,82.58
2018-12-03T20:30:17.052Z,82.04
2018-12-03T20:35:22.303Z,81.41
2018-12-03T20:41:18.315Z,80.93
2018-12-03T20:46:27.493Z,80.64
2018-12-03T20:51:34.468Z,80.80
2018-12-03T20:56:28.975Z,81.26
2018-12-03T21:17:37.712Z,81.88
2018-12-03T21:22:32.429Z,81.49
2018-12-03T21:27:26.982Z,81.56
2018-12-03T21:32:21.551Z,81.36
2018-12-03T21:37:16.139Z,80.48
2018-12-03T21:58:26.591Z,80.75
2018-12-03T22:03:21.176Z,81.30
2018-12-03T22:08:15.859Z,81.26
2018-12-03T22:13:10.353Z,82.34
2018-12-03T22:18:05.649Z,82.54
2018-12-03T22:33:49.803Z,82.80
2018-12-03T22:38:44.413Z,83.47
2018-12-03T22:43:39.007Z,83.93
2018-12-03T22:48:33.559Z,83.68
2018-12-03T23:09:43.069Z,83.83
2018-12-03T23:14:37.627Z,83.26
2018-12-03T23:19:32.419Z,82.74
2018-12-03T23:24:27.080Z,82.93
2018-12-03T23:29:21.656Z,82.99
2018-12-03T23:34:16.160Z,82.55
2018-12-03T23:39:10.836Z,83.10
2018-12-03T23:44:05.381Z,81.30
2018-12-03T23:48:59.888Z,81.00
